Shinko Maru — JD3707 — position and weather

sailwx.info

Track history (hours):
 
Tides and Currents Weather Stations Pressure Air Temp Water Temp Dewpoint Dewpoint Depression Visibility Wind Speed Wind Dir Waves Ship Positions

Shinko Maru

Last reported at 2018-Jan-21 15:02 UTC. Time now 2018-Jan-21 16:31 UTC.
Position N 35°30' E 139°45'.

Length 79 m; draft 5 m.

Type: Tanker. MMSI: 431005409.

Date/timePositionNaut miles runAvg speedWind from/ knotsBaromVisibWave heightAir tempDewpointWater temp
2018-Jan-21 15:02N 35°30' E 139°45'0 0.0
2018-Jan-21 14:53N 35°30' E 139°45'0 0.0
2018-Jan-21 14:14N 35°30' E 139°45'0 0.0
2018-Jan-21 09:59N 35°30' E 139°45'0 0.0
2018-Jan-21 05:44N 35°30' E 139°45'0 0.0
2018-Jan-21 05:27N 35°30' E 139°45'0 0.7
2018-Jan-21 05:01N 35°30' E 139°45'3 6.1
2018-Jan-21 04:30N 35°28' E 139°48'612.4
2018-Jan-21 04:01N 35°22' E 139°45'611.0
2018-Jan-21 03:31N 35°17' E 139°46'611.6
2018-Jan-21 03:00N 35°11' E 139°47'612.3
2018-Jan-21 02:30N 35°05' E 139°45'612.3
2018-Jan-21 02:00N 35°01' E 139°39'612.2
2018-Jan-21 01:29N 34°57' E 139°33'1813.3
2018-Jan-21 00:10N 34°47' E 139°16'313.6
2018-Jan-20 23:58N 34°45' E 139°13'613.8
2018-Jan-20 23:30N 34°42' E 139°07'712.7
2018-Jan-20 22:56N 34°37' E 138°60'511.6
2018-Jan-20 22:29N 34°34' E 138°54'712.1
2018-Jan-20 21:56N 34°33' E 138°46'1012.1
2018-Jan-20 21:08N 34°32' E 138°35'411.9
2018-Jan-20 20:48N 34°32' E 138°30'412.2
2018-Jan-20 20:29N 34°32' E 138°25'812.6
2018-Jan-20 19:51N 34°31' E 138°15'412.6
2018-Jan-20 19:30N 34°30' E 138°11'31911.0
2018-Jan-19 14:29N 33°18' E 131°56'612.6
2018-Jan-19 14:00N 33°18' E 131°49'613.0
2018-Jan-19 13:30N 33°17' E 131°41'1 2.0
2018-Jan-19 13:00N 33°16' E 131°41'0 0.0
2018-Jan-19 02:58N 33°16' E 131°41'1 2.0
2018-Jan-19 02:29N 33°17' E 131°41'4 8.1
2018-Jan-19 01:59N 33°21' E 131°42'1 1.4
2018-Jan-19 01:29N 33°22' E 131°42'0 0.0
2018-Jan-19 00:50N 33°22' E 131°42'0 0.1
2018-Jan-19 00:29N 33°22' E 131°42'0 0.0
2018-Jan-18 23:59N 33°22' E 131°42'0 0.0
2018-Jan-18 23:29N 33°22' E 131°42'0 0.0
2018-Jan-18 22:59N 33°22' E 131°42'0 0.0
2018-Jan-18 22:29N 33°22' E 131°42'0 0.0
2018-Jan-18 21:59N 33°22' E 131°42'0 0.0
2018-Jan-18 21:29N 33°22' E 131°42'0 0.0
2018-Jan-18 20:59N 33°22' E 131°42'0 0.0
2018-Jan-18 18:05N 33°22' E 131°42'0 0.0
2018-Jan-18 17:53N 33°22' E 131°42'0 0.0
2018-Jan-18 17:29N 33°22' E 131°42'0 0.0
2018-Jan-18 16:41N 33°22' E 131°42'0 0.0
2018-Jan-18 16:05N 33°22' E 131°42'0 0.1
2018-Jan-18 15:59N 33°22' E 131°42'0 0.0
2018-Jan-18 15:29N 33°22' E 131°42'0 0.0
2018-Jan-18 14:59N 33°22' E 131°42'0 0.0
2018-Jan-18 14:29N 33°22' E 131°42'0 0.0
2018-Jan-18 13:47N 33°22' E 131°42'0 0.0
2018-Jan-18 13:29N 33°22' E 131°42'0 0.0
2018-Jan-18 12:59N 33°22' E 131°42'0 0.0
2018-Jan-18 12:29N 33°22' E 131°42'0 0.7
2018-Jan-18 12:00N 33°22' E 131°42'612.5
2018-Jan-18 11:31N 33°27' E 131°46'611.8
2018-Jan-18 11:00N 33°33' E 131°47'611.9
2018-Jan-18 10:28N 33°39' E 131°43'612.2
2018-Jan-18 10:00N 33°42' E 131°38'612.1
2018-Jan-18 09:30N 33°44' E 131°31'612.9
2018-Jan-18 09:00N 33°47' E 131°24'613.0
2018-Jan-18 08:30N 33°49' E 131°17'713.1
2018-Jan-18 08:00N 33°52' E 131°10'713.5
2018-Jan-18 07:30N 33°56' E 131°03'611.3
2018-Jan-18 07:00N 33°56' E 130°56'510.0
2018-Jan-18 06:30N 33°57' E 130°51'713.5
2018-Jan-18 06:00N 33°58' E 130°42'713.3
2018-Jan-18 05:30N 33°57' E 130°34'612.0
2018-Jan-18 05:00N 33°54' E 130°28'713.1
2018-Jan-18 04:30N 33°49' E 130°23'713.2
2018-Jan-18 04:00N 33°44' E 130°18'510.4
2018-Jan-18 03:30N 33°39' E 130°18'510.3
2018-Jan-18 03:00N 33°36' E 130°23'0 0.1
2018-Jan-18 02:27N 33°36' E 130°23'0 0.0
2018-Jan-18 01:58N 33°36' E 130°23'0 0.0
2018-Jan-18 01:27N 33°36' E 130°23'0 0.0
2018-Jan-18 01:00N 33°36' E 130°23'0 0.0
2018-Jan-18 00:01N 33°36' E 130°23'0 0.1
2018-Jan-17 23:58N 33°36' E 130°23'  
2018-Jan-11 19:19N 33°40' E 129°59'411.0
2018-Jan-11 19:00N 33°42' E 130°03'611.3
2018-Jan-11 18:30N 33°44' E 130°09'611.2
2018-Jan-11 17:59N 33°47' E 130°16'510.9
2018-Jan-11 17:30N 33°50' E 130°21'511.0
2018-Jan-11 17:00N 33°53' E 130°26'510.2
2018-Jan-11 16:30N 33°57' E 130°31'510.4
2018-Jan-11 16:00N 33°57' E 130°37'5 9.8
2018-Jan-11 15:31N 33°58' E 130°43'  
Track history (hours):
 
Tides and Currents Weather Stations Pressure Air Temp Water Temp Dewpoint Dewpoint Depression Visibility Wind Speed Wind Dir Waves Ship Positions

Shinko Maru

Last reported at 2018-Jan-21 15:02 UTC. Time now 2018-Jan-21 16:31 UTC.
Position N 35°30' E 139°45'.

Length 79 m; draft 5 m.

Type: Tanker. MMSI: 431005409.

Date/timePositionNaut miles runAvg speedWind from/ knotsBaromVisibWave heightAir tempDewpointWater temp
2018-Jan-21 15:02N 35°30' E 139°45'0 0.0
2018-Jan-21 14:53N 35°30' E 139°45'0 0.0
2018-Jan-21 14:14N 35°30' E 139°45'0 0.0
2018-Jan-21 09:59N 35°30' E 139°45'0 0.0
2018-Jan-21 05:44N 35°30' E 139°45'0 0.0
2018-Jan-21 05:27N 35°30' E 139°45'0 0.7
2018-Jan-21 05:01N 35°30' E 139°45'3 6.1
2018-Jan-21 04:30N 35°28' E 139°48'612.4
2018-Jan-21 04:01N 35°22' E 139°45'611.0
2018-Jan-21 03:31N 35°17' E 139°46'611.6
2018-Jan-21 03:00N 35°11' E 139°47'612.3
2018-Jan-21 02:30N 35°05' E 139°45'612.3
2018-Jan-21 02:00N 35°01' E 139°39'612.2
2018-Jan-21 01:29N 34°57' E 139°33'1813.3
2018-Jan-21 00:10N 34°47' E 139°16'313.6
2018-Jan-20 23:58N 34°45' E 139°13'613.8
2018-Jan-20 23:30N 34°42' E 139°07'712.7
2018-Jan-20 22:56N 34°37' E 138°60'511.6
2018-Jan-20 22:29N 34°34' E 138°54'712.1
2018-Jan-20 21:56N 34°33' E 138°46'1012.1
2018-Jan-20 21:08N 34°32' E 138°35'411.9
2018-Jan-20 20:48N 34°32' E 138°30'412.2
2018-Jan-20 20:29N 34°32' E 138°25'812.6
2018-Jan-20 19:51N 34°31' E 138°15'412.6
2018-Jan-20 19:30N 34°30' E 138°11'31911.0
2018-Jan-19 14:29N 33°18' E 131°56'612.6
2018-Jan-19 14:00N 33°18' E 131°49'613.0
2018-Jan-19 13:30N 33°17' E 131°41'1 2.0
2018-Jan-19 13:00N 33°16' E 131°41'0 0.0
2018-Jan-19 02:58N 33°16' E 131°41'1 2.0
2018-Jan-19 02:29N 33°17' E 131°41'4 8.1
2018-Jan-19 01:59N 33°21' E 131°42'1 1.4
2018-Jan-19 01:29N 33°22' E 131°42'0 0.0
2018-Jan-19 00:50N 33°22' E 131°42'0 0.1
2018-Jan-19 00:29N 33°22' E 131°42'0 0.0
2018-Jan-18 23:59N 33°22' E 131°42'0 0.0
2018-Jan-18 23:29N 33°22' E 131°42'0 0.0
2018-Jan-18 22:59N 33°22' E 131°42'0 0.0
2018-Jan-18 22:29N 33°22' E 131°42'0 0.0
2018-Jan-18 21:59N 33°22' E 131°42'0 0.0
2018-Jan-18 21:29N 33°22' E 131°42'0 0.0
2018-Jan-18 20:59N 33°22' E 131°42'0 0.0
2018-Jan-18 18:05N 33°22' E 131°42'0 0.0
2018-Jan-18 17:53N 33°22' E 131°42'0 0.0
2018-Jan-18 17:29N 33°22' E 131°42'0 0.0
2018-Jan-18 16:41N 33°22' E 131°42'0 0.0
2018-Jan-18 16:05N 33°22' E 131°42'0 0.1
2018-Jan-18 15:59N 33°22' E 131°42'0 0.0
2018-Jan-18 15:29N 33°22' E 131°42'0 0.0
2018-Jan-18 14:59N 33°22' E 131°42'0 0.0
2018-Jan-18 14:29N 33°22' E 131°42'0 0.0
2018-Jan-18 13:47N 33°22' E 131°42'0 0.0
2018-Jan-18 13:29N 33°22' E 131°42'0 0.0
2018-Jan-18 12:59N 33°22' E 131°42'0 0.0
2018-Jan-18 12:29N 33°22' E 131°42'0 0.7
2018-Jan-18 12:00N 33°22' E 131°42'612.5
2018-Jan-18 11:31N 33°27' E 131°46'611.8
2018-Jan-18 11:00N 33°33' E 131°47'611.9
2018-Jan-18 10:28N 33°39' E 131°43'612.2
2018-Jan-18 10:00N 33°42' E 131°38'612.1
2018-Jan-18 09:30N 33°44' E 131°31'612.9
2018-Jan-18 09:00N 33°47' E 131°24'613.0
2018-Jan-18 08:30N 33°49' E 131°17'713.1
2018-Jan-18 08:00N 33°52' E 131°10'713.5
2018-Jan-18 07:30N 33°56' E 131°03'611.3
2018-Jan-18 07:00N 33°56' E 130°56'510.0
2018-Jan-18 06:30N 33°57' E 130°51'713.5
2018-Jan-18 06:00N 33°58' E 130°42'713.3
2018-Jan-18 05:30N 33°57' E 130°34'612.0
2018-Jan-18 05:00N 33°54' E 130°28'713.1
2018-Jan-18 04:30N 33°49' E 130°23'713.2
2018-Jan-18 04:00N 33°44' E 130°18'510.4
2018-Jan-18 03:30N 33°39' E 130°18'510.3
2018-Jan-18 03:00N 33°36' E 130°23'0 0.1
2018-Jan-18 02:27N 33°36' E 130°23'0 0.0
2018-Jan-18 01:58N 33°36' E 130°23'0 0.0
2018-Jan-18 01:27N 33°36' E 130°23'0 0.0
2018-Jan-18 01:00N 33°36' E 130°23'0 0.0
2018-Jan-18 00:01N 33°36' E 130°23'0 0.1
2018-Jan-17 23:58N 33°36' E 130°23'  
2018-Jan-11 19:19N 33°40' E 129°59'411.0
2018-Jan-11 19:00N 33°42' E 130°03'611.3
2018-Jan-11 18:30N 33°44' E 130°09'611.2
2018-Jan-11 17:59N 33°47' E 130°16'510.9
2018-Jan-11 17:30N 33°50' E 130°21'511.0
2018-Jan-11 17:00N 33°53' E 130°26'510.2
2018-Jan-11 16:30N 33°57' E 130°31'510.4
2018-Jan-11 16:00N 33°57' E 130°37'5 9.8
2018-Jan-11 15:31N 33°58' E 130°43'  

Dump ship's entire track history